createdAt,value
2024-03-24T00:04:18.438Z,8.80
2024-03-24T00:09:21.034Z,9.34
2024-03-24T00:14:23.657Z,7.42
2024-03-24T00:19:26.743Z,9.16
2024-03-24T00:24:29.371Z,8.82
2024-03-24T00:29:32.657Z,7.62
2024-03-24T00:34:35.389Z,9.44
2024-03-24T00:39:38.020Z,8.07
2024-03-24T00:44:40.712Z,8.50
2024-03-24T00:49:43.450Z,8.10
2024-03-24T00:54:46.094Z,8.41
2024-03-24T00:59:48.975Z,9.60
2024-03-24T01:04:51.606Z,8.16
2024-03-24T01:09:55.917Z,7.77
2024-03-24T01:14:58.566Z,9.22
2024-03-24T01:20:01.199Z,7.66
2024-03-24T01:25:04.303Z,8.92
2024-03-24T01:30:08.028Z,9.05
2024-03-24T01:35:10.726Z,7.93
2024-03-24T01:40:13.680Z,9.57
2024-03-24T01:45:16.356Z,8.10
2024-03-24T01:50:19.029Z,8.30
2024-03-24T01:55:22.267Z,9.04
2024-03-24T02:00:25.216Z,8.06
2024-03-24T02:05:28.920Z,9.32
2024-03-24T02:10:31.916Z,7.75
2024-03-24T02:15:34.649Z,9.09
2024-03-24T02:20:37.363Z,9.49
2024-03-24T02:25:40.003Z,7.80
2024-03-24T02:30:42.690Z,9.81
2024-03-24T02:35:46.478Z,9.35
2024-03-24T02:40:49.699Z,7.08
2024-03-24T02:45:59.227Z,7.24
2024-03-24T02:51:01.876Z,9.88
2024-03-24T02:56:06.268Z,10.07
2024-03-24T03:01:09.253Z,7.73
2024-03-24T03:06:15.930Z,7.29
2024-03-24T03:11:19.217Z,9.67
2024-03-24T03:16:21.859Z,9.45
2024-03-24T03:21:26.380Z,7.75
2024-03-24T03:26:29.486Z,9.77
2024-03-24T03:31:32.086Z,8.58
2024-03-24T03:36:34.746Z,7.45
2024-03-24T03:41:41.254Z,9.52
2024-03-24T03:46:44.330Z,9.82
2024-03-24T03:51:54.454Z,8.07
2024-03-24T03:56:57.100Z,9.97
2024-03-24T04:02:00.104Z,8.65
2024-03-24T04:07:03.251Z,8.03
2024-03-24T04:12:07.247Z,10.26
2024-03-24T04:17:09.980Z,10.35
2024-03-24T04:22:13.562Z,8.17
2024-03-24T04:27:17.449Z,10.02
2024-03-24T04:32:20.114Z,10.04
2024-03-24T04:37:23.300Z,7.68
2024-03-24T04:42:27.197Z,7.82
2024-03-24T04:47:30.987Z,10.28
2024-03-24T04:52:33.863Z,9.02
2024-03-24T04:57:36.508Z,8.29
2024-03-24T05:02:39.203Z,10.67
2024-03-24T05:07:41.944Z,10.54
2024-03-24T05:12:44.565Z,8.19
2024-03-24T05:17:47.754Z,7.84
2024-03-24T05:22:50.401Z,10.38
2024-03-24T05:27:54.601Z,10.50
2024-03-24T05:32:57.341Z,8.08
2024-03-24T05:38:00.538Z,8.04
2024-03-24T05:43:03.838Z,10.35
2024-03-24T05:48:07.495Z,9.68
2024-03-24T05:53:10.186Z,8.07
2024-03-24T05:58:12.939Z,9.73
2024-03-24T06:03:15.782Z,8.92
2024-03-24T06:08:20.957Z,8.84
2024-03-24T06:13:26.738Z,10.67
2024-03-24T06:18:32.180Z,8.83
2024-03-24T06:23:34.858Z,9.35
2024-03-24T06:28:38.060Z,10.80
2024-03-24T06:33:40.703Z,8.86
2024-03-24T06:38:43.325Z,9.79
2024-03-24T06:43:46.613Z,10.47
2024-03-24T06:48:50.218Z,8.90
2024-03-24T06:53:53.337Z,10.10
2024-03-24T06:58:56.847Z,8.81
2024-03-24T07:04:00.126Z,9.33
2024-03-24T07:09:02.786Z,10.00
2024-03-24T07:14:05.378Z,8.36
2024-03-24T07:19:08.509Z,9.74
2024-03-24T07:24:11.211Z,10.02
2024-03-24T07:29:13.959Z,9.06
2024-03-24T07:34:16.955Z,10.62
2024-03-24T07:39:19.685Z,8.96
2024-03-24T07:44:22.469Z,9.37
2024-03-24T07:49:25.121Z,10.01
2024-03-24T07:54:28.129Z,8.33
2024-03-24T07:59:31.274Z,9.88
2024-03-24T08:04:33.956Z,10.61
2024-03-24T08:09:36.742Z,8.81
2024-03-24T08:14:42.021Z,10.21
2024-03-24T08:19:44.667Z,8.94
2024-03-24T08:24:47.777Z,9.71
2024-03-24T08:29:50.502Z,9.23
2024-03-24T08:34:53.268Z,9.56
2024-03-24T08:39:55.922Z,9.90
2024-03-24T08:44:58.584Z,8.80
2024-03-24T08:50:01.211Z,9.87
2024-03-24T08:55:04.355Z,9.16
2024-03-24T09:00:10.303Z,10.98
2024-03-24T09:05:13.018Z,9.66
2024-03-24T09:10:15.780Z,9.77
2024-03-24T09:15:20.191Z,11.16
2024-03-24T09:20:22.875Z,9.50
2024-03-24T09:25:25.646Z,9.74
2024-03-24T09:30:28.395Z,9.85
2024-03-24T09:35:32.771Z,8.78
2024-03-24T09:40:37.078Z,9.99
2024-03-24T09:45:40.181Z,9.11
2024-03-24T09:50:44.125Z,9.69
2024-03-24T09:55:47.232Z,9.94
2024-03-24T10:00:50.192Z,9.20
2024-03-24T10:05:53.249Z,11.15
2024-03-24T10:10:56.202Z,10.57
2024-03-24T10:16:14.799Z,9.44
2024-03-24T10:21:21.457Z,9.01
2024-03-24T10:26:24.132Z,10.68
2024-03-24T10:31:26.863Z,9.56
2024-03-24T10:36:32.605Z,8.85
2024-03-24T10:41:36.626Z,10.79
2024-03-24T10:46:41.288Z,10.26
2024-03-24T10:51:44.836Z,9.20
2024-03-24T10:56:48.018Z,9.21
2024-03-24T11:01:51.986Z,10.79
2024-03-24T11:06:56.419Z,9.54
2024-03-24T11:11:59.625Z,8.69
2024-03-24T11:17:04.576Z,8.58
2024-03-24T11:22:08.478Z,8.69
2024-03-24T11:27:14.995Z,8.47
2024-03-24T11:32:18.228Z,9.81
2024-03-24T11:37:35.228Z,11.23
2024-03-24T11:42:40.068Z,10.26
2024-03-24T11:47:44.738Z,9.48
2024-03-24T11:52:50.957Z,8.85
2024-03-24T11:57:55.544Z,8.37
2024-03-24T12:02:58.533Z,8.41
2024-03-24T12:08:01.385Z,10.53
2024-03-24T12:13:04.529Z,9.81
2024-03-24T12:18:11.433Z,9.97
2024-03-24T12:23:16.863Z,11.05
2024-03-24T12:28:20.298Z,11.92
2024-03-24T12:33:24.948Z,11.74
2024-03-24T12:38:27.725Z,10.98
2024-03-24T12:43:31.572Z,10.46
2024-03-24T12:48:34.405Z,9.98
2024-03-24T12:54:01.648Z,10.04
2024-03-24T12:59:04.396Z,9.63
2024-03-24T13:04:08.316Z,9.35
2024-03-24T13:09:13.318Z,9.92
2024-03-24T13:14:16.110Z,10.64
2024-03-24T13:19:35.024Z,11.16
2024-03-24T13:24:45.569Z,11.29
2024-03-24T13:29:48.224Z,11.79
2024-03-24T13:34:51.276Z,12.69
2024-03-24T13:40:36.470Z,12.56
2024-03-24T13:46:16.690Z,12.07
2024-03-24T13:51:20.242Z,12.65
2024-03-24T13:56:22.931Z,12.37
2024-03-24T14:01:25.623Z,11.77
2024-03-24T14:06:28.380Z,11.07
2024-03-24T14:11:32.650Z,10.68
2024-03-24T14:16:48.392Z,10.31
2024-03-24T14:21:53.672Z,9.87
2024-03-24T14:26:56.305Z,9.58
2024-03-24T14:31:58.937Z,9.31
2024-03-24T14:37:13.853Z,8.99
2024-03-24T14:42:35.509Z,8.51
2024-03-24T14:48:04.925Z,8.16
2024-03-24T14:53:07.728Z,8.80
2024-03-24T14:58:10.401Z,9.75
2024-03-24T15:03:14.237Z,10.88
2024-03-24T15:08:17.138Z,10.50
2024-03-24T15:13:19.788Z,9.79
2024-03-24T15:18:22.429Z,9.16
2024-03-24T15:23:25.079Z,8.38
2024-03-24T15:28:27.812Z,7.68
2024-03-24T15:33:31.410Z,7.58
2024-03-24T15:38:34.097Z,8.80
2024-03-24T15:43:37.056Z,9.66
2024-03-24T15:48:40.076Z,9.76
2024-03-24T15:53:43.393Z,10.02
2024-03-24T15:59:06.892Z,10.58
2024-03-24T16:04:09.611Z,10.87
2024-03-24T16:09:19.260Z,11.26
2024-03-24T16:14:35.886Z,11.50
2024-03-24T16:19:38.700Z,11.51
2024-03-24T16:24:43.446Z,11.85
2024-03-24T16:29:47.765Z,11.36
2024-03-24T16:34:50.403Z,10.50
2024-03-24T16:39:53.102Z,9.80
2024-03-24T16:44:55.860Z,9.19
2024-03-24T16:49:59.062Z,8.65
2024-03-24T16:55:02.598Z,8.22
2024-03-24T17:00:06.765Z,7.90
2024-03-24T17:05:09.484Z,7.63
2024-03-24T17:10:12.239Z,7.40
2024-03-24T17:15:18.280Z,7.22
2024-03-24T17:20:21.049Z,7.07
2024-03-24T17:25:23.777Z,8.20
2024-03-24T17:30:30.316Z,11.57
2024-03-24T17:35:33.762Z,12.15
2024-03-24T17:40:36.525Z,10.15
2024-03-24T17:45:39.301Z,8.99
2024-03-24T17:50:42.155Z,8.28
2024-03-24T17:55:44.824Z,7.73
2024-03-24T18:00:47.508Z,7.28
2024-03-24T18:05:50.230Z,7.25
2024-03-24T18:10:52.939Z,10.54
2024-03-24T18:15:55.834Z,11.44
2024-03-24T18:21:01.108Z,9.49
2024-03-24T18:26:06.220Z,8.24
2024-03-24T18:31:08.924Z,7.48
2024-03-24T18:36:14.380Z,6.91
2024-03-24T18:41:18.414Z,7.96
2024-03-24T18:46:22.804Z,11.28
2024-03-24T18:51:25.738Z,10.32
2024-03-24T18:56:29.830Z,8.45
2024-03-24T19:01:32.539Z,7.38
2024-03-24T19:06:35.347Z,6.72
2024-03-24T19:11:41.596Z,6.28
2024-03-24T19:16:44.368Z,7.38
2024-03-24T19:21:47.316Z,10.65
2024-03-24T19:26:50.072Z,10.46
2024-03-24T19:31:52.964Z,8.66
2024-03-24T19:36:57.153Z,7.65
2024-03-24T19:42:00.657Z,7.04
2024-03-24T19:47:05.251Z,6.58
2024-03-24T19:52:08.988Z,6.21
2024-03-24T19:57:13.493Z,5.91
2024-03-24T20:02:16.189Z,5.67
2024-03-24T20:07:24.296Z,6.85
2024-03-24T20:12:28.298Z,10.45
2024-03-24T20:17:31.035Z,11.08
2024-03-24T20:22:34.616Z,9.05
2024-03-24T20:27:37.378Z,7.79
2024-03-24T20:32:40.599Z,6.94
2024-03-24T20:37:43.395Z,6.33
2024-03-24T20:42:47.051Z,7.77
2024-03-24T20:47:49.679Z,10.81
2024-03-24T20:52:53.019Z,10.50
2024-03-24T20:57:56.992Z,8.30
2024-03-24T21:03:00.079Z,7.12
2024-03-24T21:08:02.924Z,6.31
2024-03-24T21:13:05.647Z,5.79
2024-03-24T21:18:08.391Z,6.93
2024-03-24T21:23:12.620Z,10.55
2024-03-24T21:28:17.114Z,10.51
2024-03-24T21:33:23.086Z,8.48
2024-03-24T21:38:44.183Z,7.32
2024-03-24T21:43:46.826Z,6.45
2024-03-24T21:48:49.429Z,5.85
2024-03-24T21:53:52.028Z,5.73
2024-03-24T21:58:55.977Z,8.98
2024-03-24T22:03:58.570Z,10.63
2024-03-24T22:09:01.148Z,8.59
2024-03-24T22:14:03.799Z,7.10
2024-03-24T22:19:07.208Z,6.12
2024-03-24T22:24:09.818Z,5.46
2024-03-24T22:29:13.733Z,6.75
2024-03-24T22:34:17.772Z,10.24
2024-03-24T22:39:20.713Z,10.50
2024-03-24T22:44:23.431Z,8.20
2024-03-24T22:49:26.221Z,6.86
2024-03-24T22:54:28.835Z,6.03
2024-03-24T22:59:33.340Z,7.04
2024-03-24T23:04:36.132Z,10.50
2024-03-24T23:09:39.867Z,10.19
2024-03-24T23:14:42.505Z,8.03
2024-03-24T23:19:45.199Z,6.83
2024-03-24T23:24:48.193Z,6.06
2024-03-24T23:29:50.993Z,5.56
2024-03-24T23:34:53.631Z,6.56
2024-03-24T23:39:57.264Z,10.19
2024-03-24T23:45:00.428Z,10.70
2024-03-24T23:50:03.444Z,8.50
2024-03-24T23:55:08.276Z,7.19
